West Point, Iowa
Current Conditions -  °F | °C
As of 2:55 PM on Thursday 18 Dec 2014 (Local Time) from KFSW Reporting Station
Overcast Overcast  
Wind Chill: -2°   Ceiling: 4200
Heat Index: -2°   Visibility: 10mi
Dew Point: -4°   Wind: 3mph
Humidity: 86%   Direction: 340°NNW
Pressure: 30.25"   Gusts: NA
Location:  40.72°N, 91.45°W
Report Text: KFSW 182055Z AUTO 34003KT 10SM OVC042 M02/M04 A3025 RMK AO2
Loading
Personal Weather Stations






























Interactive Weather Map New forecast layout! Learn more

10-Day Weather Forecast

Advertisements
Track Severe Weather on mobile